createdAt,value
2019-03-31T00:00:03.636Z,6.92
2019-03-31T00:01:08.393Z,6.96
2019-03-31T00:02:04.652Z,6.82
2019-03-31T00:03:03.612Z,6.97
2019-03-31T00:04:03.593Z,6.89
2019-03-31T00:05:03.577Z,6.85
2019-03-31T00:06:03.565Z,6.87
2019-03-31T00:07:03.578Z,6.66
2019-03-31T00:08:03.546Z,6.69
2019-03-31T00:09:03.536Z,6.54
2019-03-31T00:10:03.527Z,6.60
2019-03-31T00:11:03.509Z,6.62
2019-03-31T00:12:03.517Z,6.57
2019-03-31T00:13:03.489Z,6.51
2019-03-31T00:14:03.476Z,6.48
2019-03-31T00:15:03.477Z,6.38
2019-03-31T00:16:03.459Z,6.41
2019-03-31T00:17:03.481Z,6.38
2019-03-31T00:18:03.444Z,6.27
2019-03-31T00:19:03.422Z,6.31
2019-03-31T00:20:03.411Z,6.17
2019-03-31T00:21:03.407Z,6.17
2019-03-31T00:22:03.398Z,6.24
2019-03-31T00:23:03.397Z,6.09
2019-03-31T00:24:03.378Z,6.11
2019-03-31T00:25:03.359Z,6.09
2019-03-31T00:26:03.346Z,5.90
2019-03-31T00:27:03.343Z,5.93
2019-03-31T00:28:03.349Z,5.84
2019-03-31T00:29:03.323Z,5.84
2019-03-31T00:30:03.314Z,5.80
2019-03-31T00:31:03.299Z,5.66
2019-03-31T00:32:03.283Z,5.66
2019-03-31T00:33:03.300Z,5.65
2019-03-31T00:34:03.266Z,5.59
2019-03-31T00:35:03.257Z,5.56
2019-03-31T00:36:03.242Z,5.47
2019-03-31T00:37:03.233Z,5.59
2019-03-31T00:38:03.252Z,5.54
2019-03-31T00:39:03.215Z,5.50
2019-03-31T00:40:03.201Z,5.50
2019-03-31T00:41:03.188Z,5.48
2019-03-31T00:42:03.197Z,5.47
2019-03-31T00:43:03.180Z,5.39
2019-03-31T00:44:03.153Z,5.36
2019-03-31T00:45:03.146Z,5.33
2019-03-31T00:46:03.133Z,5.33
2019-03-31T00:47:03.124Z,5.38
2019-03-31T00:48:03.131Z,5.33
2019-03-31T00:49:03.101Z,5.32
2019-03-31T00:50:03.092Z,5.29
2019-03-31T00:51:03.107Z,5.33
2019-03-31T00:52:03.068Z,5.26
2019-03-31T00:53:03.078Z,5.26
2019-03-31T00:54:03.053Z,5.18
2019-03-31T00:55:03.036Z,5.20
2019-03-31T00:56:03.022Z,5.15
2019-03-31T00:57:03.024Z,5.14
2019-03-31T00:58:02.998Z,5.11
2019-03-31T00:59:03.029Z,5.04
2019-03-31T01:00:02.987Z,5.11
2019-03-31T01:01:02.977Z,5.17
2019-03-31T01:02:02.963Z,5.14
2019-03-31T01:03:03.031Z,5.11
2019-03-31T01:04:02.943Z,5.08
2019-03-31T01:05:02.941Z,5.05
2019-03-31T01:06:02.936Z,5.08
2019-03-31T01:07:02.906Z,5.12
2019-03-31T01:08:02.899Z,5.07
2019-03-31T01:09:02.879Z,4.96
2019-03-31T01:10:02.872Z,4.94
2019-03-31T01:11:02.884Z,4.94
2019-03-31T01:12:02.853Z,4.92
2019-03-31T01:13:02.848Z,4.80
2019-03-31T01:14:02.830Z,4.80
2019-03-31T01:15:02.817Z,4.71
2019-03-31T01:16:02.822Z,4.74
2019-03-31T01:17:02.793Z,4.74
2019-03-31T01:18:02.786Z,4.80
2019-03-31T01:19:02.775Z,4.77
2019-03-31T01:20:02.770Z,4.74
2019-03-31T01:21:02.776Z,4.75
2019-03-31T01:22:02.746Z,4.71
2019-03-31T01:23:02.732Z,4.73
2019-03-31T01:24:02.720Z,4.58
2019-03-31T01:25:02.713Z,4.77
2019-03-31T01:26:02.703Z,4.73
2019-03-31T01:27:02.709Z,4.80
2019-03-31T01:28:02.675Z,4.80
2019-03-31T01:29:02.664Z,4.77
2019-03-31T01:30:02.656Z,4.75
2019-03-31T01:31:02.658Z,4.74
2019-03-31T01:32:02.665Z,4.77
2019-03-31T01:33:02.630Z,4.77
2019-03-31T01:34:02.616Z,4.78
2019-03-31T01:35:02.605Z,4.74
2019-03-31T01:36:02.592Z,4.60
2019-03-31T01:37:02.606Z,4.56
2019-03-31T01:38:02.575Z,4.55
2019-03-31T01:39:02.561Z,4.55
2019-03-31T01:40:02.554Z,4.48
2019-03-31T01:41:02.535Z,4.53
2019-03-31T01:42:02.528Z,4.58
2019-03-31T01:43:02.547Z,4.53
2019-03-31T01:44:02.509Z,4.48
2019-03-31T01:45:02.498Z,4.52
2019-03-31T01:46:02.485Z,4.49
2019-03-31T01:47:02.473Z,4.48
2019-03-31T01:48:02.520Z,4.49
2019-03-31T01:49:02.467Z,4.42
2019-03-31T01:50:02.442Z,4.44
2019-03-31T01:51:02.432Z,4.37
2019-03-31T01:52:02.426Z,4.45
2019-03-31T01:53:02.413Z,4.40
2019-03-31T01:54:02.429Z,4.40
2019-03-31T01:55:02.386Z,4.45
2019-03-31T01:56:02.373Z,4.40
2019-03-31T01:57:02.980Z,4.38
2019-03-31T01:58:02.356Z,4.34
2019-03-31T01:59:02.343Z,4.32
2019-03-31T02:00:02.349Z,4.35
2019-03-31T02:01:02.321Z,4.34
2019-03-31T02:02:04.526Z,4.28
2019-03-31T02:03:02.303Z,4.34
2019-03-31T02:04:02.294Z,4.35
2019-03-31T02:05:02.288Z,4.37
2019-03-31T02:06:02.275Z,4.31
2019-03-31T02:07:02.257Z,4.32
2019-03-31T02:08:02.263Z,4.16
2019-03-31T02:09:02.238Z,4.22
2019-03-31T02:10:02.244Z,4.22
2019-03-31T02:11:02.217Z,4.26
2019-03-31T02:12:02.207Z,4.32
2019-03-31T02:13:02.190Z,4.34
2019-03-31T02:14:02.185Z,4.34
2019-03-31T02:15:02.192Z,4.34
2019-03-31T02:16:02.165Z,4.38
2019-03-31T02:17:02.155Z,4.30
2019-03-31T02:18:02.149Z,4.37
2019-03-31T02:19:02.130Z,4.38
2019-03-31T02:20:02.140Z,4.22
2019-03-31T02:21:02.122Z,4.30
2019-03-31T02:22:02.101Z,4.40
2019-03-31T02:23:02.088Z,4.34
2019-03-31T02:24:02.079Z,4.23
2019-03-31T02:25:02.081Z,4.32
2019-03-31T02:26:02.076Z,4.24
2019-03-31T02:27:02.043Z,4.19
2019-03-31T02:28:02.031Z,4.14
2019-03-31T02:29:02.033Z,4.14
2019-03-31T02:30:02.039Z,4.20
2019-03-31T02:31:02.000Z,4.22
2019-03-31T02:32:01.987Z,4.20
2019-03-31T02:33:01.977Z,4.23
2019-03-31T02:34:01.969Z,4.28
2019-03-31T02:35:02.009Z,4.19
2019-03-31T02:36:01.969Z,4.23
2019-03-31T02:37:01.978Z,4.23
2019-03-31T02:38:01.941Z,4.31
2019-03-31T02:39:01.915Z,4.34
2019-03-31T02:40:01.904Z,4.37
2019-03-31T02:41:01.892Z,4.34
2019-03-31T02:42:01.908Z,4.37
2019-03-31T02:43:01.877Z,4.31
2019-03-31T02:44:01.871Z,4.34
2019-03-31T02:45:01.863Z,4.23
2019-03-31T02:46:01.857Z,4.31
2019-03-31T02:47:01.995Z,4.28
2019-03-31T02:48:01.832Z,4.28
2019-03-31T02:49:01.878Z,4.22
2019-03-31T02:50:01.799Z,4.20
2019-03-31T02:51:01.787Z,4.23
2019-03-31T02:52:01.798Z,4.24
2019-03-31T02:53:01.776Z,4.30
2019-03-31T02:54:01.763Z,4.24
2019-03-31T02:55:01.750Z,4.17
2019-03-31T02:56:01.740Z,4.24
2019-03-31T02:57:01.865Z,4.24
2019-03-31T02:58:01.734Z,4.24
2019-03-31T02:59:01.704Z,4.23
2019-03-31T03:00:01.763Z,4.28
2019-03-31T03:01:01.691Z,4.26
2019-03-31T03:02:01.671Z,4.28
2019-03-31T03:03:01.686Z,4.30
2019-03-31T03:04:01.646Z,4.35
2019-03-31T03:05:17.656Z,4.23
2019-03-31T03:06:02.625Z,4.30
2019-03-31T03:07:01.619Z,4.22
2019-03-31T03:08:01.786Z,4.34
2019-03-31T03:09:01.602Z,4.37
2019-03-31T03:10:01.639Z,4.32
2019-03-31T03:11:01.572Z,4.37
2019-03-31T03:12:01.559Z,4.30
2019-03-31T03:13:01.564Z,4.35
2019-03-31T03:14:01.545Z,4.31
2019-03-31T03:15:01.529Z,4.34
2019-03-31T03:16:01.525Z,4.45
2019-03-31T03:17:01.508Z,4.48
2019-03-31T03:18:01.517Z,4.50
2019-03-31T03:19:01.490Z,4.58
2019-03-31T03:20:01.480Z,4.66
2019-03-31T03:21:01.468Z,4.73
2019-03-31T03:22:01.572Z,4.82
2019-03-31T03:23:01.468Z,4.75
2019-03-31T03:24:01.429Z,4.87
2019-03-31T03:25:01.418Z,4.90
2019-03-31T03:26:01.409Z,4.96
2019-03-31T03:27:01.407Z,5.04
2019-03-31T03:28:01.410Z,5.05
2019-03-31T03:29:01.381Z,5.14
2019-03-31T03:30:01.379Z,5.11
2019-03-31T03:31:01.493Z,5.20
2019-03-31T03:32:01.344Z,5.30
2019-03-31T03:33:14.837Z,5.26
2019-03-31T03:34:02.339Z,5.39
2019-03-31T03:35:01.433Z,5.44
2019-03-31T03:36:01.301Z,5.30
2019-03-31T03:37:01.290Z,5.36
2019-03-31T03:38:01.280Z,5.38
2019-03-31T03:39:01.288Z,5.38
2019-03-31T03:40:01.263Z,5.38
2019-03-31T03:41:01.259Z,5.46
2019-03-31T03:42:01.237Z,5.44
2019-03-31T03:43:01.228Z,5.46
2019-03-31T03:44:02.578Z,5.43
2019-03-31T03:45:01.202Z,5.35
2019-03-31T03:46:01.198Z,5.43
2019-03-31T03:47:01.205Z,5.44
2019-03-31T03:48:01.176Z,5.51
2019-03-31T03:49:01.191Z,5.47
2019-03-31T03:50:01.164Z,5.50
2019-03-31T03:51:01.149Z,5.59
2019-03-31T03:52:01.142Z,5.46
2019-03-31T03:53:01.120Z,5.54
2019-03-31T03:54:01.135Z,5.57
2019-03-31T03:55:01.097Z,5.53
2019-03-31T03:56:01.082Z,5.50
2019-03-31T03:57:01.070Z,5.32
2019-03-31T03:58:01.061Z,5.36
2019-03-31T03:59:01.056Z,5.43
2019-03-31T04:00:01.064Z,5.32
2019-03-31T04:01:01.044Z,5.29
2019-03-31T04:02:01.048Z,5.18
2019-03-31T04:03:01.009Z,5.15
2019-03-31T04:04:01.030Z,5.15
2019-03-31T04:05:01.065Z,5.17
2019-03-31T04:06:00.978Z,5.15
2019-03-31T04:07:00.964Z,5.07
2019-03-31T04:08:00.952Z,5.11
2019-03-31T04:09:00.958Z,5.10
2019-03-31T04:10:00.932Z,5.07
2019-03-31T04:11:00.923Z,5.10
2019-03-31T04:12:00.923Z,5.23
2019-03-31T04:13:00.909Z,5.26
2019-03-31T04:14:00.919Z,5.28
2019-03-31T04:15:00.878Z,5.25
2019-03-31T04:16:00.868Z,5.25
2019-03-31T04:17:00.859Z,5.30
2019-03-31T04:18:00.855Z,5.30
2019-03-31T04:19:00.845Z,5.28
2019-03-31T04:20:00.845Z,5.18
2019-03-31T04:21:00.811Z,5.12
2019-03-31T04:22:00.800Z,5.12
2019-03-31T04:23:00.795Z,5.05
2019-03-31T04:24:00.788Z,5.07
2019-03-31T04:25:00.796Z,5.05
2019-03-31T04:26:00.779Z,5.12
2019-03-31T04:27:00.751Z,5.18
2019-03-31T04:28:00.736Z,5.10
2019-03-31T04:29:00.728Z,5.28
2019-03-31T04:30:00.880Z,5.32
2019-03-31T04:31:00.709Z,5.35
2019-03-31T04:32:00.720Z,5.36
2019-03-31T04:33:00.690Z,5.51
2019-03-31T04:34:00.676Z,5.41
2019-03-31T04:35:00.754Z,5.48
2019-03-31T04:36:00.649Z,5.46
2019-03-31T04:37:00.644Z,5.48
2019-03-31T04:38:00.631Z,5.44
2019-03-31T04:39:00.955Z,5.44
2019-03-31T04:40:00.651Z,5.47
2019-03-31T04:41:00.596Z,5.41
2019-03-31T04:42:00.595Z,5.46
2019-03-31T04:43:00.578Z,5.50
2019-03-31T04:44:00.574Z,5.46
2019-03-31T04:45:00.581Z,5.51
2019-03-31T04:46:00.544Z,5.46
2019-03-31T04:47:00.537Z,5.53
2019-03-31T04:48:00.521Z,5.51
2019-03-31T04:49:00.514Z,5.47
2019-03-31T04:50:00.502Z,5.47
2019-03-31T04:51:00.507Z,5.47
2019-03-31T04:52:00.481Z,5.54
2019-03-31T04:53:00.464Z,5.50
2019-03-31T04:54:00.539Z,5.43
2019-03-31T04:55:00.528Z,5.48
2019-03-31T04:56:00.462Z,5.50
2019-03-31T04:57:00.444Z,5.51
2019-03-31T04:58:00.413Z,5.47
2019-03-31T04:59:00.405Z,5.48
2019-03-31T05:00:00.441Z,5.35
2019-03-31T05:01:00.377Z,5.35
2019-03-31T05:02:00.388Z,5.39
2019-03-31T05:03:00.383Z,5.39
2019-03-31T05:04:05.110Z,5.39
2019-03-31T05:05:01.340Z,5.38
2019-03-31T05:06:00.326Z,5.39
2019-03-31T05:07:00.316Z,5.32
2019-03-31T05:08:00.326Z,5.29
2019-03-31T05:09:00.302Z,5.33
2019-03-31T05:10:00.443Z,5.28
2019-03-31T05:11:00.311Z,5.29
2019-03-31T05:12:00.256Z,5.30
2019-03-31T05:13:00.285Z,5.32
2019-03-31T05:14:00.264Z,5.32
2019-03-31T05:15:00.244Z,5.43
2019-03-31T05:16:00.270Z,5.35
2019-03-31T05:17:00.226Z,5.35
2019-03-31T05:18:00.293Z,5.48
2019-03-31T05:19:00.184Z,5.50
2019-03-31T05:20:00.356Z,5.53
2019-03-31T05:21:00.165Z,5.50
2019-03-31T05:22:00.153Z,5.62
2019-03-31T05:23:00.158Z,5.65
2019-03-31T05:24:00.131Z,5.79
2019-03-31T05:25:00.382Z,5.80
2019-03-31T05:26:00.112Z,5.76
2019-03-31T05:27:00.095Z,5.99
2019-03-31T05:28:00.104Z,6.04
2019-03-31T05:29:00.079Z,5.99
2019-03-31T05:30:00.345Z,6.11
2019-03-31T05:31:00.055Z,6.26
2019-03-31T05:32:00.063Z,6.31
2019-03-31T05:33:00.054Z,6.52
2019-03-31T05:34:00.024Z,6.62
2019-03-31T05:35:00.010Z,6.57
2019-03-31T05:35:59.999Z,6.62
2019-03-31T05:36:59.986Z,6.66
2019-03-31T05:37:59.998Z,6.63
2019-03-31T05:38:59.969Z,6.66
2019-03-31T05:39:59.964Z,6.67
2019-03-31T05:40:59.941Z,6.67
2019-03-31T05:41:59.935Z,6.77
2019-03-31T05:42:59.942Z,6.84
2019-03-31T05:44:05.815Z,6.79
2019-03-31T05:45:00.909Z,6.84
2019-03-31T05:45:59.894Z,6.85
2019-03-31T05:46:59.908Z,6.88
2019-03-31T05:47:59.873Z,6.82
2019-03-31T05:48:59.855Z,6.89
2019-03-31T05:49:59.847Z,6.88
2019-03-31T05:50:59.840Z,7.02
2019-03-31T05:51:59.835Z,7.05
2019-03-31T05:52:59.837Z,6.92
2019-03-31T05:53:59.811Z,7.05
2019-03-31T05:54:59.816Z,7.06
2019-03-31T05:55:59.781Z,7.20
2019-03-31T05:56:59.781Z,7.24
2019-03-31T05:57:59.780Z,7.36
2019-03-31T05:58:59.772Z,7.31
2019-03-31T05:59:59.738Z,7.35
2019-03-31T06:01:00.245Z,7.33
2019-03-31T06:01:59.716Z,7.50
2019-03-31T06:02:59.718Z,7.47
2019-03-31T06:03:59.722Z,7.50
2019-03-31T06:04:59.693Z,7.53
2019-03-31T06:05:59.692Z,7.66
2019-03-31T06:06:59.663Z,7.72
2019-03-31T06:07:59.648Z,7.73
2019-03-31T06:08:59.662Z,7.73
2019-03-31T06:09:59.632Z,7.76
2019-03-31T06:10:59.620Z,7.75
2019-03-31T06:11:59.612Z,7.87
2019-03-31T06:12:59.597Z,7.88
2019-03-31T06:13:59.586Z,7.91
2019-03-31T06:14:59.607Z,7.98
2019-03-31T06:15:59.582Z,7.97
2019-03-31T06:16:59.556Z,8.06
2019-03-31T06:17:59.547Z,8.05
2019-03-31T06:18:59.533Z,8.10
2019-03-31T06:19:59.543Z,8.20
2019-03-31T06:20:59.507Z,8.18
2019-03-31T06:21:59.506Z,8.20
2019-03-31T06:22:59.490Z,8.31
2019-03-31T06:23:59.500Z,8.28
2019-03-31T06:24:59.476Z,8.36
2019-03-31T06:25:59.475Z,8.34
2019-03-31T06:26:59.446Z,8.34
2019-03-31T06:27:59.430Z,8.34
2019-03-31T06:28:59.444Z,8.33
2019-03-31T06:29:59.413Z,8.30
2019-03-31T06:30:59.404Z,8.44
2019-03-31T06:31:59.405Z,8.42
2019-03-31T06:32:59.381Z,8.42
2019-03-31T06:33:59.396Z,8.46
2019-03-31T06:34:59.371Z,8.46
2019-03-31T06:35:59.368Z,8.49
2019-03-31T06:36:59.370Z,8.52
2019-03-31T06:37:59.328Z,8.49
2019-03-31T06:38:59.342Z,8.46
2019-03-31T06:39:59.304Z,8.55
2019-03-31T06:40:59.292Z,8.46
2019-03-31T06:41:59.280Z,8.49
2019-03-31T06:42:59.272Z,8.55
2019-03-31T06:43:59.264Z,8.49
2019-03-31T06:44:59.311Z,8.56
2019-03-31T06:45:59.237Z,8.49
2019-03-31T06:46:59.229Z,8.52
2019-03-31T06:47:59.225Z,8.52
2019-03-31T06:48:59.214Z,8.52
2019-03-31T06:49:59.223Z,8.51
2019-03-31T06:50:59.196Z,8.46
2019-03-31T06:51:59.186Z,8.49
2019-03-31T06:52:59.162Z,8.49
2019-03-31T06:53:59.151Z,8.42
2019-03-31T06:54:59.160Z,8.48
2019-03-31T06:55:59.175Z,8.42
2019-03-31T06:56:59.161Z,8.41
2019-03-31T06:57:59.128Z,8.41
2019-03-31T06:58:59.096Z,8.42
2019-03-31T06:59:59.086Z,8.38
2019-03-31T07:00:59.078Z,8.44
2019-03-31T07:01:59.085Z,8.41
2019-03-31T07:02:59.058Z,8.46
2019-03-31T07:03:59.043Z,8.41
2019-03-31T07:05:01.272Z,8.31
2019-03-31T07:05:59.096Z,8.27
2019-03-31T07:06:59.019Z,8.42
2019-03-31T07:07:59.002Z,8.38
2019-03-31T07:08:58.997Z,8.38
2019-03-31T07:09:58.996Z,8.38
2019-03-31T07:10:58.966Z,8.34
2019-03-31T07:11:58.983Z,8.34
2019-03-31T07:12:59.869Z,8.31
2019-03-31T07:13:58.938Z,8.30
2019-03-31T07:14:58.930Z,8.31
2019-03-31T07:15:58.949Z,8.33
2019-03-31T07:16:58.928Z,8.34
2019-03-31T07:17:58.897Z,8.27
2019-03-31T07:18:58.886Z,8.33
2019-03-31T07:19:58.891Z,8.31
2019-03-31T07:20:58.877Z,8.37
2019-03-31T07:21:58.888Z,8.34
2019-03-31T07:22:58.835Z,8.31
2019-03-31T07:23:58.822Z,8.27
2019-03-31T07:24:58.812Z,8.27
2019-03-31T07:25:58.811Z,8.31
2019-03-31T07:26:58.793Z,8.30
2019-03-31T07:27:58.803Z,8.34
2019-03-31T07:28:58.773Z,8.33
2019-03-31T07:29:58.780Z,8.20
2019-03-31T07:30:59.498Z,8.20
2019-03-31T07:31:58.738Z,8.15
2019-03-31T07:32:58.771Z,8.23
2019-03-31T07:33:58.733Z,8.23
2019-03-31T07:34:58.703Z,8.20
2019-03-31T07:35:58.693Z,8.18
2019-03-31T07:36:58.698Z,8.24
2019-03-31T07:37:58.676Z,8.19
2019-03-31T07:38:58.684Z,8.30
2019-03-31T07:39:58.662Z,8.27
2019-03-31T07:41:12.122Z,8.24
2019-03-31T07:42:00.035Z,8.18
2019-03-31T07:42:58.658Z,8.23
2019-03-31T07:43:58.629Z,8.20
2019-03-31T07:44:58.602Z,8.28
2019-03-31T07:45:58.587Z,8.30
2019-03-31T07:46:58.580Z,8.31
2019-03-31T07:47:58.568Z,8.38
2019-03-31T07:48:58.563Z,8.38
2019-03-31T07:49:58.560Z,8.36
2019-03-31T07:50:58.538Z,8.38
2019-03-31T07:51:58.523Z,8.42
2019-03-31T07:52:58.512Z,8.42
2019-03-31T07:53:58.505Z,8.42
2019-03-31T07:54:58.524Z,8.36
2019-03-31T07:55:58.504Z,8.44
2019-03-31T07:56:58.464Z,8.46
2019-03-31T07:57:58.491Z,8.49
2019-03-31T07:58:58.451Z,8.51
2019-03-31T07:59:58.441Z,8.51
2019-03-31T08:00:58.426Z,8.49
2019-03-31T08:01:58.430Z,8.55
2019-03-31T08:03:00.285Z,8.58
2019-03-31T08:03:58.386Z,8.61
2019-03-31T08:04:58.382Z,8.64
2019-03-31T08:05:58.398Z,8.61
2019-03-31T08:06:58.367Z,8.70
2019-03-31T08:07:58.343Z,8.71
2019-03-31T08:08:58.347Z,8.63
2019-03-31T08:09:58.326Z,8.67
2019-03-31T08:10:58.315Z,8.58
2019-03-31T08:11:58.323Z,8.55
2019-03-31T08:12:58.295Z,8.55
2019-03-31T08:13:58.282Z,8.61
2019-03-31T08:14:58.270Z,8.53
2019-03-31T08:15:58.836Z,8.67
2019-03-31T08:16:58.455Z,8.64
2019-03-31T08:17:58.249Z,8.79
2019-03-31T08:18:58.227Z,8.78
2019-03-31T08:19:58.220Z,8.74
2019-03-31T08:20:58.202Z,8.82
2019-03-31T08:21:58.210Z,8.99
2019-03-31T08:22:58.240Z,8.95
2019-03-31T08:23:58.179Z,8.99
2019-03-31T08:24:58.175Z,8.88
2019-03-31T08:25:58.181Z,8.94
2019-03-31T08:27:00.616Z,8.88
2019-03-31T08:27:58.125Z,8.95
2019-03-31T08:28:58.697Z,8.89
2019-03-31T08:30:00.762Z,8.87
2019-03-31T17:17:40.119Z,10.33
2019-03-31T17:18:40.819Z,10.19
2019-03-31T17:19:40.032Z,10.22
2019-03-31T17:20:40.005Z,10.15
2019-03-31T17:21:40.007Z,9.99
2019-03-31T17:22:40.008Z,10.05
2019-03-31T17:23:40.470Z,10.04
2019-03-31T17:24:40.002Z,9.94
2019-03-31T17:25:40.064Z,9.91
2019-03-31T17:26:40.073Z,9.83
2019-03-31T17:27:39.915Z,9.76
2019-03-31T17:28:39.960Z,9.68
2019-03-31T17:29:39.893Z,9.69
2019-03-31T17:30:39.867Z,9.54
2019-03-31T17:31:39.841Z,9.59
2019-03-31T17:32:39.841Z,9.59
2019-03-31T17:33:39.868Z,9.61
2019-03-31T17:34:39.816Z,9.56
2019-03-31T17:35:39.797Z,9.44
2019-03-31T17:36:39.790Z,9.51
2019-03-31T17:37:39.780Z,9.32
2019-03-31T17:38:39.766Z,9.34
2019-03-31T17:39:39.880Z,9.29
2019-03-31T17:40:39.747Z,9.16
2019-03-31T17:41:39.737Z,9.16
2019-03-31T17:42:39.728Z,9.10
2019-03-31T17:43:39.719Z,9.06
2019-03-31T17:44:39.740Z,9.08
2019-03-31T17:45:39.716Z,9.00
2019-03-31T17:46:39.680Z,8.99
2019-03-31T17:47:39.672Z,8.97
2019-03-31T17:48:39.679Z,8.92
2019-03-31T17:49:39.654Z,8.92
2019-03-31T17:50:40.512Z,8.91
2019-03-31T17:51:39.934Z,8.84
2019-03-31T17:52:39.846Z,8.81
2019-03-31T17:53:39.694Z,8.76
2019-03-31T17:54:39.600Z,8.73
2019-03-31T17:55:39.606Z,8.73
2019-03-31T17:56:39.811Z,8.56
2019-03-31T17:57:42.224Z,8.55
2019-03-31T17:58:39.753Z,8.44
2019-03-31T17:59:40.369Z,8.49
2019-03-31T18:00:39.613Z,8.36
2019-03-31T18:01:40.112Z,8.28
2019-03-31T18:02:39.571Z,8.36
2019-03-31T18:03:39.605Z,8.34
2019-03-31T18:04:39.531Z,8.33
2019-03-31T18:05:39.493Z,8.33
2019-03-31T18:06:39.632Z,8.30
2019-03-31T18:07:39.487Z,8.24
2019-03-31T18:08:42.278Z,8.15
2019-03-31T18:09:39.501Z,8.20
2019-03-31T18:10:39.615Z,8.08
2019-03-31T18:11:39.514Z,8.01
2019-03-31T18:12:39.514Z,7.93
2019-03-31T18:13:39.544Z,7.87
2019-03-31T18:14:39.714Z,7.70
2019-03-31T18:15:39.658Z,7.73
2019-03-31T18:16:39.664Z,7.72
2019-03-31T18:17:39.512Z,7.75
2019-03-31T18:18:39.884Z,7.70
2019-03-31T18:19:39.409Z,7.67
2019-03-31T18:20:39.313Z,7.54
2019-03-31T18:21:39.299Z,7.51
2019-03-31T18:22:39.308Z,7.48
2019-03-31T18:23:39.282Z,7.40
2019-03-31T18:24:39.269Z,7.39
2019-03-31T18:25:39.278Z,7.39
2019-03-31T18:26:39.269Z,7.48
2019-03-31T18:27:39.234Z,7.38
2019-03-31T18:28:39.242Z,7.47
2019-03-31T18:29:39.214Z,7.48
2019-03-31T18:30:39.217Z,7.40
2019-03-31T18:31:39.219Z,7.38
2019-03-31T18:32:39.190Z,7.35
2019-03-31T18:33:39.174Z,7.35
2019-03-31T18:34:39.163Z,7.33
2019-03-31T18:35:39.145Z,7.38
2019-03-31T18:36:39.138Z,7.31
2019-03-31T18:37:39.156Z,7.23
2019-03-31T18:38:39.119Z,7.11
2019-03-31T18:39:39.119Z,7.03
2019-03-31T18:40:39.096Z,7.10
2019-03-31T18:41:39.082Z,6.97
2019-03-31T18:42:39.074Z,6.96
2019-03-31T18:43:50.581Z,6.95
2019-03-31T18:44:40.056Z,6.85
2019-03-31T18:45:39.043Z,6.82
2019-03-31T18:46:39.032Z,6.84
2019-03-31T18:47:39.045Z,6.79
2019-03-31T18:48:39.009Z,6.85
2019-03-31T18:49:38.996Z,6.84
2019-03-31T18:50:38.993Z,6.82
2019-03-31T18:51:38.983Z,6.77
2019-03-31T18:52:38.968Z,6.70
2019-03-31T18:53:38.969Z,6.70
2019-03-31T18:54:38.947Z,6.67
2019-03-31T18:55:38.939Z,6.64
2019-03-31T18:56:38.921Z,6.74
2019-03-31T18:57:38.913Z,6.70
2019-03-31T18:58:38.921Z,6.95
2019-03-31T18:59:38.885Z,6.89
2019-03-31T19:00:38.882Z,6.93
2019-03-31T19:01:38.865Z,6.87
2019-03-31T19:02:38.914Z,6.95
2019-03-31T19:03:39.017Z,6.89
2019-03-31T19:04:38.835Z,6.84
2019-03-31T19:05:38.910Z,6.88
2019-03-31T19:06:38.860Z,6.79
2019-03-31T19:07:38.890Z,6.74
2019-03-31T19:08:39.103Z,6.67
2019-03-31T19:09:38.960Z,6.54
2019-03-31T19:10:49.381Z,6.51
2019-03-31T19:11:39.821Z,6.51
2019-03-31T19:12:38.832Z,6.49
2019-03-31T19:13:38.851Z,6.54
2019-03-31T19:14:38.833Z,6.56
2019-03-31T19:15:38.810Z,6.56
2019-03-31T19:16:38.778Z,6.56
2019-03-31T19:17:38.839Z,6.44
2019-03-31T19:18:38.813Z,6.44
2019-03-31T19:19:38.691Z,6.31
2019-03-31T19:20:38.799Z,6.28
2019-03-31T19:21:38.811Z,6.22
2019-03-31T19:22:38.703Z,6.07
2019-03-31T19:23:38.683Z,6.11
2019-03-31T19:24:38.670Z,6.01
2019-03-31T19:25:38.624Z,6.08
2019-03-31T19:26:48.230Z,6.02
2019-03-31T19:27:39.681Z,5.94
2019-03-31T19:28:38.679Z,5.84
2019-03-31T19:29:38.642Z,5.83
2019-03-31T19:30:38.567Z,5.79
2019-03-31T19:31:38.656Z,5.64
2019-03-31T19:32:39.366Z,5.64
2019-03-31T19:33:38.657Z,5.62
2019-03-31T19:34:38.744Z,5.68
2019-03-31T19:35:38.503Z,5.71
2019-03-31T19:36:38.542Z,5.82
2019-03-31T19:37:38.525Z,5.87
2019-03-31T19:38:38.524Z,5.97
2019-03-31T19:39:38.471Z,5.87
2019-03-31T19:40:41.291Z,5.90
2019-03-31T19:41:38.535Z,5.80
2019-03-31T19:42:38.491Z,5.75
2019-03-31T19:43:38.678Z,5.68
2019-03-31T19:44:38.509Z,5.62
2019-03-31T19:45:38.479Z,5.59
2019-03-31T19:46:38.574Z,5.57
2019-03-31T19:47:38.400Z,5.46
2019-03-31T19:48:38.423Z,5.35
2019-03-31T19:49:38.424Z,5.43
2019-03-31T19:50:38.448Z,5.32
2019-03-31T19:51:38.352Z,5.35
2019-03-31T19:52:38.445Z,5.21
2019-03-31T19:53:38.303Z,5.14
2019-03-31T19:54:38.338Z,5.14
2019-03-31T19:55:38.367Z,5.14
2019-03-31T19:56:38.379Z,5.05
2019-03-31T19:57:38.390Z,4.99
2019-03-31T19:58:38.260Z,5.04
2019-03-31T19:59:38.347Z,5.11
2019-03-31T20:00:38.422Z,5.32
2019-03-31T20:01:38.398Z,5.28
2019-03-31T20:02:38.399Z,5.28
2019-03-31T20:03:38.687Z,5.28
2019-03-31T20:04:38.381Z,5.14
2019-03-31T20:05:38.227Z,5.14
2019-03-31T20:06:38.162Z,5.10
2019-03-31T20:07:38.160Z,5.07
2019-03-31T20:08:38.397Z,4.94
2019-03-31T20:09:38.134Z,4.92
2019-03-31T20:10:38.242Z,4.93
2019-03-31T20:11:38.180Z,4.84
2019-03-31T20:12:38.177Z,4.89
2019-03-31T20:13:38.332Z,4.92
2019-03-31T20:14:38.176Z,4.89
2019-03-31T20:15:38.069Z,4.94
2019-03-31T20:16:38.080Z,4.92
2019-03-31T20:17:38.230Z,4.93
2019-03-31T20:18:38.122Z,4.90
2019-03-31T20:19:38.171Z,4.90
2019-03-31T20:20:38.021Z,4.75
2019-03-31T20:21:38.821Z,4.70
2019-03-31T20:22:38.015Z,4.63
2019-03-31T20:23:37.997Z,4.59
2019-03-31T20:24:37.970Z,4.60
2019-03-31T20:25:38.006Z,4.59
2019-03-31T20:26:37.948Z,4.55
2019-03-31T20:27:37.945Z,4.52
2019-03-31T20:28:37.930Z,4.42
2019-03-31T20:29:37.919Z,4.44
2019-03-31T20:30:37.903Z,4.48
2019-03-31T20:31:37.916Z,4.60
2019-03-31T20:32:37.886Z,4.55
2019-03-31T20:33:37.874Z,4.56
2019-03-31T20:34:37.873Z,4.49
2019-03-31T20:35:37.849Z,4.38
2019-03-31T20:36:37.871Z,4.34
2019-03-31T20:37:37.829Z,4.30
2019-03-31T20:38:37.818Z,4.32
2019-03-31T20:39:37.809Z,4.31
2019-03-31T20:40:37.807Z,4.40
2019-03-31T20:41:37.791Z,4.53
2019-03-31T20:42:37.804Z,4.74
2019-03-31T20:43:37.768Z,4.67
2019-03-31T20:44:37.757Z,4.70
2019-03-31T20:45:37.748Z,4.70
2019-03-31T20:46:37.743Z,4.73
2019-03-31T20:47:37.743Z,4.74
2019-03-31T20:48:37.710Z,4.75
2019-03-31T20:49:37.698Z,4.77
2019-03-31T20:50:37.692Z,4.73
2019-03-31T20:51:37.690Z,4.75
2019-03-31T20:52:37.700Z,4.84
2019-03-31T20:53:37.661Z,4.90
2019-03-31T20:54:37.650Z,4.96
2019-03-31T20:55:37.637Z,4.97
2019-03-31T20:56:37.751Z,5.02
2019-03-31T20:57:37.613Z,5.17
2019-03-31T20:58:37.638Z,5.11
2019-03-31T20:59:37.725Z,5.15
2019-03-31T21:00:37.587Z,5.00
2019-03-31T21:01:37.570Z,5.07
2019-03-31T21:02:37.569Z,5.10
2019-03-31T21:03:37.558Z,4.93
2019-03-31T21:04:37.594Z,4.92
2019-03-31T21:05:37.534Z,4.87
2019-03-31T21:06:37.531Z,4.82
2019-03-31T21:07:37.505Z,4.97
2019-03-31T21:08:37.502Z,4.92
2019-03-31T21:09:44.752Z,4.96
2019-03-31T21:10:38.493Z,4.80
2019-03-31T21:11:37.468Z,4.67
2019-03-31T21:12:37.454Z,4.78
2019-03-31T21:13:37.464Z,4.89
2019-03-31T21:14:37.434Z,4.90
2019-03-31T21:15:37.437Z,4.94
2019-03-31T21:16:37.405Z,4.90
2019-03-31T21:17:37.401Z,4.89
2019-03-31T21:18:37.406Z,4.94
2019-03-31T21:19:37.375Z,4.92
2019-03-31T21:20:37.380Z,4.97
2019-03-31T21:21:37.350Z,5.07
2019-03-31T21:22:37.346Z,5.08
2019-03-31T21:23:37.332Z,5.04
2019-03-31T21:24:37.362Z,4.93
2019-03-31T21:25:37.329Z,4.90
2019-03-31T21:26:37.312Z,4.78
2019-03-31T21:27:37.286Z,4.75
2019-03-31T21:28:37.272Z,4.93
2019-03-31T21:29:37.271Z,4.92
2019-03-31T21:30:37.274Z,4.96
2019-03-31T21:31:37.252Z,4.92
2019-03-31T21:32:37.238Z,4.92
2019-03-31T21:33:37.218Z,4.94
2019-03-31T21:34:37.214Z,4.86
2019-03-31T21:35:37.228Z,4.90
2019-03-31T21:36:37.215Z,4.78
2019-03-31T21:37:37.187Z,4.73
2019-03-31T21:38:37.174Z,4.60
2019-03-31T21:39:37.159Z,4.55
2019-03-31T21:40:37.147Z,4.49
2019-03-31T21:41:37.156Z,4.44
2019-03-31T21:42:37.124Z,4.42
2019-03-31T21:43:37.120Z,4.59
2019-03-31T21:44:37.201Z,4.59
2019-03-31T21:45:37.113Z,4.55
2019-03-31T21:46:37.085Z,4.38
2019-03-31T21:47:37.071Z,4.37
2019-03-31T21:48:37.059Z,4.30
2019-03-31T21:49:37.055Z,4.34
2019-03-31T21:50:37.060Z,4.35
2019-03-31T21:51:37.050Z,4.20
2019-03-31T21:52:37.017Z,4.23
2019-03-31T21:53:37.003Z,4.20
2019-03-31T21:54:36.995Z,4.12
2019-03-31T21:55:36.989Z,4.08
2019-03-31T21:56:37.010Z,4.10
2019-03-31T21:57:36.966Z,4.10
2019-03-31T21:58:36.957Z,4.22
2019-03-31T21:59:36.945Z,4.04
2019-03-31T22:00:36.933Z,4.02
2019-03-31T22:01:36.958Z,3.96
2019-03-31T22:02:36.924Z,4.02
2019-03-31T22:03:36.903Z,3.99
2019-03-31T22:04:36.895Z,3.92